BHS208 KFLL-MYNN
Flight info
| Callsign | BHS208 |
|---|---|
| Flight time | 0h 31m |
| Altitude | 23000 |
| Route | SNAPR2 RAJAY |
| Aircraft | B737/M-SDE2E3FGHIRWXY/LB1 |
Departure
| Time | 2026-05-07 21:45 |
|---|---|
| Airport | Fort Lauderdale Hollywood International Airport (KFLL) |
Arrival
| Time | 2026-05-07 22:17 |
|---|---|
| Airport | Lynden Pindling International Airport (MYNN) |
| Time | Latitude | Longitude | Altitude | Speed | Heading |
|---|---|---|---|---|---|
| 2026-05-07 21:17 | 26.07384 | -80.13640 | 24 ft | 0 kts | 104° |
| 2026-05-07 21:31 | 26.07384 | -80.13642 | 15 ft | 2 kts | 104° |
| 2026-05-07 21:31 | 26.07390 | -80.13670 | 15 ft | 4 kts | 104° |
| 2026-05-07 21:31 | 26.07396 | -80.13693 | 15 ft | 4 kts | 116° |
| 2026-05-07 21:32 | 26.07410 | -80.13707 | 16 ft | 3 kts | 178° |
| 2026-05-07 21:32 | 26.07432 | -80.13713 | 17 ft | 4 kts | 121° |
| 2026-05-07 21:32 | 26.07433 | -80.13731 | 16 ft | 4 kts | 32° |
| 2026-05-07 21:32 | 26.07411 | -80.13735 | 17 ft | 3 kts | 0° |
| 2026-05-07 21:33 | 26.07409 | -80.13735 | 17 ft | 0 kts | 0° |
| 2026-05-07 21:36 | 26.07418 | -80.13735 | 19 ft | 4 kts | 0° |
| 2026-05-07 21:36 | 26.07448 | -80.13735 | 15 ft | 4 kts | 1° |
| 2026-05-07 21:36 | 26.07479 | -80.13734 | 15 ft | 5 kts | 1° |
| 2026-05-07 21:37 | 26.07514 | -80.13752 | 15 ft | 6 kts | 295° |
| 2026-05-07 21:37 | 26.07518 | -80.13810 | 15 ft | 9 kts | 272° |
| 2026-05-07 21:37 | 26.07526 | -80.13880 | 15 ft | 9 kts | 287° |
| 2026-05-07 21:37 | 26.07554 | -80.13946 | 15 ft | 10 kts | 286° |
| 2026-05-07 21:38 | 26.07556 | -80.14031 | 15 ft | 12 kts | 269° |
| 2026-05-07 21:38 | 26.07557 | -80.14131 | 16 ft | 14 kts | 271° |
| 2026-05-07 21:38 | 26.07558 | -80.14243 | 16 ft | 15 kts | 270° |
| 2026-05-07 21:38 | 26.07557 | -80.14359 | 16 ft | 16 kts | 272° |
| 2026-05-07 21:39 | 26.07559 | -80.14487 | 16 ft | 16 kts | 270° |
| 2026-05-07 21:39 | 26.07559 | -80.14612 | 16 ft | 16 kts | 270° |
| 2026-05-07 21:39 | 26.07560 | -80.14731 | 16 ft | 15 kts | 270° |
| 2026-05-07 21:39 | 26.07560 | -80.14845 | 15 ft | 14 kts | 270° |
| 2026-05-07 21:40 | 26.07561 | -80.14962 | 15 ft | 16 kts | 270° |
| 2026-05-07 21:40 | 26.07562 | -80.15084 | 15 ft | 15 kts | 271° |
| 2026-05-07 21:40 | 26.07563 | -80.15201 | 15 ft | 15 kts | 270° |
| 2026-05-07 21:40 | 26.07564 | -80.15314 | 15 ft | 14 kts | 270° |
| 2026-05-07 21:41 | 26.07564 | -80.15422 | 15 ft | 14 kts | 270° |
| 2026-05-07 21:41 | 26.07565 | -80.15524 | 15 ft | 13 kts | 270° |
| 2026-05-07 21:41 | 26.07566 | -80.15624 | 15 ft | 13 kts | 270° |
| 2026-05-07 21:41 | 26.07567 | -80.15734 | 15 ft | 15 kts | 270° |
| 2026-05-07 21:42 | 26.07567 | -80.15848 | 15 ft | 15 kts | 270° |
| 2026-05-07 21:42 | 26.07567 | -80.15967 | 15 ft | 15 kts | 270° |
| 2026-05-07 21:42 | 26.07568 | -80.16080 | 16 ft | 14 kts | 271° |
| 2026-05-07 21:42 | 26.07568 | -80.16185 | 16 ft | 13 kts | 269° |
| 2026-05-07 21:43 | 26.07569 | -80.16287 | 16 ft | 13 kts | 271° |
| 2026-05-07 21:43 | 26.07570 | -80.16398 | 16 ft | 15 kts | 271° |
| 2026-05-07 21:43 | 26.07571 | -80.16508 | 16 ft | 14 kts | 270° |
| 2026-05-07 21:43 | 26.07576 | -80.16609 | 15 ft | 13 kts | 290° |
| 2026-05-07 21:44 | 26.07650 | -80.16642 | 17 ft | 13 kts | 6° |
| 2026-05-07 21:44 | 26.07694 | -80.16571 | 18 ft | 12 kts | 90° |
| 2026-05-07 21:44 | 26.07695 | -80.16351 | 19 ft | 60 kts | 90° |
| 2026-05-07 21:44 | 26.07690 | -80.15617 | 14 ft | 127 kts | 90° |
| 2026-05-07 21:45 | 26.07694 | -80.14462 | 148 ft | 165 kts | 90° |
| 2026-05-07 21:45 | 26.07774 | -80.13194 | 862 ft | 165 kts | 87° |
| 2026-05-07 21:45 | 26.07831 | -80.11841 | 1274 ft | 188 kts | 89° |
| 2026-05-07 21:45 | 26.07847 | -80.10382 | 2030 ft | 186 kts | 89° |
| 2026-05-07 21:46 | 26.07873 | -80.08907 | 2585 ft | 203 kts | 89° |
| 2026-05-07 21:46 | 26.07898 | -80.07247 | 2991 ft | 223 kts | 88° |
| 2026-05-07 21:46 | 26.07894 | -80.05417 | 3250 ft | 252 kts | 90° |
| 2026-05-07 21:46 | 26.07791 | -80.03369 | 3613 ft | 275 kts | 97° |
| 2026-05-07 21:47 | 26.07485 | -80.01244 | 4363 ft | 281 kts | 99° |
| 2026-05-07 21:47 | 26.07128 | -79.99092 | 5195 ft | 285 kts | 99° |
| 2026-05-07 21:47 | 26.06763 | -79.96916 | 6066 ft | 285 kts | 99° |
| 2026-05-07 21:47 | 26.06405 | -79.94756 | 6994 ft | 285 kts | 100° |
| 2026-05-07 21:48 | 26.06050 | -79.92572 | 7775 ft | 290 kts | 99° |
| 2026-05-07 21:48 | 26.05696 | -79.90362 | 8686 ft | 290 kts | 99° |
| 2026-05-07 21:48 | 26.05344 | -79.88145 | 9615 ft | 293 kts | 99° |
| 2026-05-07 21:48 | 26.04990 | -79.85897 | 10417 ft | 300 kts | 99° |
| 2026-05-07 21:49 | 26.04618 | -79.83519 | 10682 ft | 326 kts | 99° |
| 2026-05-07 21:49 | 26.04219 | -79.80965 | 11151 ft | 341 kts | 99° |
| 2026-05-07 21:49 | 26.03810 | -79.78347 | 11899 ft | 346 kts | 99° |
| 2026-05-07 21:49 | 26.03395 | -79.75693 | 12597 ft | 349 kts | 98° |
| 2026-05-07 21:50 | 26.02980 | -79.73040 | 12946 ft | 350 kts | 99° |
| 2026-05-07 21:50 | 26.02559 | -79.70348 | 12995 ft | 356 kts | 99° |
| 2026-05-07 21:50 | 26.02135 | -79.67647 | 13000 ft | 353 kts | 99° |
| 2026-05-07 21:50 | 26.01713 | -79.64961 | 13003 ft | 352 kts | 99° |
| 2026-05-07 21:51 | 26.01290 | -79.62270 | 13064 ft | 358 kts | 99° |
| 2026-05-07 21:51 | 26.00858 | -79.59529 | 13864 ft | 360 kts | 99° |
| 2026-05-07 21:51 | 26.00424 | -79.56776 | 14663 ft | 362 kts | 99° |
| 2026-05-07 21:51 | 25.99986 | -79.54002 | 15372 ft | 368 kts | 99° |
| 2026-05-07 21:52 | 25.99540 | -79.51178 | 16060 ft | 374 kts | 99° |
| 2026-05-07 21:52 | 25.99086 | -79.48318 | 16758 ft | 379 kts | 99° |
| 2026-05-07 21:52 | 25.98624 | -79.45406 | 17464 ft | 384 kts | 98° |
| 2026-05-07 21:52 | 25.98156 | -79.42458 | 18163 ft | 390 kts | 98° |
| 2026-05-07 21:53 | 25.97680 | -79.39473 | 18780 ft | 395 kts | 99° |
| 2026-05-07 21:53 | 25.96950 | -79.36513 | 19365 ft | 401 kts | 109° |
| 2026-05-07 21:53 | 25.95964 | -79.33589 | 19984 ft | 406 kts | 110° |
| 2026-05-07 21:53 | 25.94923 | -79.30657 | 20582 ft | 410 kts | 111° |
| 2026-05-07 21:54 | 25.94222 | -79.28702 | 21025 ft | 412 kts | 111° |
| 2026-05-07 21:54 | 25.93162 | -79.25745 | 21787 ft | 411 kts | 111° |
| 2026-05-07 21:54 | 25.91771 | -79.21827 | 22702 ft | 414 kts | 111° |
| 2026-05-07 21:54 | 25.90724 | -79.18851 | 23008 ft | 414 kts | 111° |
| 2026-05-07 21:55 | 25.89677 | -79.15863 | 23013 ft | 415 kts | 111° |
| 2026-05-07 21:55 | 25.88974 | -79.13853 | 23017 ft | 413 kts | 111° |
| 2026-05-07 21:55 | 25.87936 | -79.10885 | 23042 ft | 412 kts | 111° |
| 2026-05-07 21:55 | 25.86563 | -79.06955 | 23037 ft | 412 kts | 111° |
| 2026-05-07 21:56 | 25.85863 | -79.04954 | 23039 ft | 412 kts | 111° |
| 2026-05-07 21:56 | 25.84838 | -79.02027 | 23038 ft | 412 kts | 111° |
| 2026-05-07 21:56 | 25.83800 | -78.99066 | 23020 ft | 412 kts | 111° |
| 2026-05-07 21:56 | 25.82748 | -78.96066 | 23034 ft | 411 kts | 111° |
| 2026-05-07 21:57 | 25.81724 | -78.93149 | 23031 ft | 411 kts | 111° |
| 2026-05-07 21:57 | 25.80686 | -78.90195 | 23029 ft | 411 kts | 111° |
| 2026-05-07 21:57 | 25.79648 | -78.87243 | 23030 ft | 411 kts | 111° |
| 2026-05-07 21:57 | 25.78610 | -78.84295 | 23029 ft | 410 kts | 111° |
| 2026-05-07 21:58 | 25.77578 | -78.81366 | 23029 ft | 410 kts | 111° |
| 2026-05-07 21:58 | 25.76539 | -78.78419 | 23030 ft | 410 kts | 111° |
| 2026-05-07 21:58 | 25.75510 | -78.75498 | 23031 ft | 410 kts | 111° |
| 2026-05-07 21:58 | 25.74481 | -78.72616 | 23029 ft | 410 kts | 113° |
| 2026-05-07 21:59 | 25.73148 | -78.69817 | 23030 ft | 409 kts | 123° |
| 2026-05-07 21:59 | 25.71562 | -78.67200 | 23036 ft | 409 kts | 125° |
| 2026-05-07 21:59 | 25.69938 | -78.64613 | 23032 ft | 410 kts | 125° |
| 2026-05-07 21:59 | 25.68309 | -78.62024 | 22935 ft | 406 kts | 125° |
| 2026-05-07 22:00 | 25.66699 | -78.59445 | 22563 ft | 405 kts | 124° |
| 2026-05-07 22:00 | 25.65112 | -78.56883 | 22101 ft | 403 kts | 124° |
| 2026-05-07 22:00 | 25.63541 | -78.54333 | 21649 ft | 398 kts | 124° |
| 2026-05-07 22:00 | 25.61990 | -78.51810 | 21169 ft | 394 kts | 124° |
| 2026-05-07 22:01 | 25.60454 | -78.49310 | 20709 ft | 391 kts | 124° |
| 2026-05-07 22:01 | 25.58931 | -78.46831 | 20234 ft | 388 kts | 124° |
| 2026-05-07 22:01 | 25.57297 | -78.44476 | 19757 ft | 385 kts | 133° |
| 2026-05-07 22:01 | 25.55351 | -78.42461 | 19323 ft | 381 kts | 139° |
| 2026-05-07 22:02 | 25.53344 | -78.40564 | 18851 ft | 378 kts | 140° |
| 2026-05-07 22:02 | 25.51336 | -78.38694 | 18370 ft | 377 kts | 139° |
| 2026-05-07 22:02 | 25.49336 | -78.36826 | 17840 ft | 375 kts | 139° |
| 2026-05-07 22:02 | 25.47358 | -78.34968 | 17369 ft | 370 kts | 139° |
| 2026-05-07 22:03 | 25.45415 | -78.33134 | 16864 ft | 364 kts | 139° |
| 2026-05-07 22:03 | 25.43514 | -78.31333 | 16384 ft | 356 kts | 139° |
| 2026-05-07 22:03 | 25.41661 | -78.29574 | 15926 ft | 348 kts | 139° |
| 2026-05-07 22:03 | 25.39843 | -78.27849 | 15479 ft | 340 kts | 139° |
| 2026-05-07 22:04 | 25.38063 | -78.26161 | 15050 ft | 334 kts | 139° |
| 2026-05-07 22:04 | 25.36315 | -78.24503 | 14624 ft | 330 kts | 139° |
| 2026-05-07 22:04 | 25.34574 | -78.22852 | 14190 ft | 329 kts | 139° |
| 2026-05-07 22:04 | 25.32839 | -78.21206 | 13734 ft | 329 kts | 139° |
| 2026-05-07 22:05 | 25.31115 | -78.19551 | 13251 ft | 328 kts | 135° |
| 2026-05-07 22:05 | 25.29718 | -78.17587 | 12817 ft | 324 kts | 118° |
| 2026-05-07 22:05 | 25.28772 | -78.15347 | 12457 ft | 321 kts | 111° |
| 2026-05-07 22:05 | 25.27935 | -78.13067 | 12082 ft | 320 kts | 110° |
| 2026-05-07 22:06 | 25.27119 | -78.10783 | 11711 ft | 318 kts | 110° |
| 2026-05-07 22:06 | 25.26310 | -78.08524 | 11346 ft | 315 kts | 110° |
| 2026-05-07 22:06 | 25.25501 | -78.06289 | 10987 ft | 312 kts | 111° |
| 2026-05-07 22:06 | 25.24692 | -78.04074 | 10627 ft | 309 kts | 110° |
| 2026-05-07 22:07 | 25.23898 | -78.01913 | 10271 ft | 306 kts | 111° |
| 2026-05-07 22:07 | 25.23089 | -77.99726 | 9917 ft | 301 kts | 111° |
| 2026-05-07 22:07 | 25.22334 | -77.97693 | 9786 ft | 283 kts | 111° |
| 2026-05-07 22:07 | 25.21583 | -77.95671 | 9273 ft | 281 kts | 111° |
| 2026-05-07 22:08 | 25.20845 | -77.93686 | 8884 ft | 277 kts | 111° |
| 2026-05-07 22:08 | 25.20113 | -77.91718 | 8561 ft | 278 kts | 111° |
| 2026-05-07 22:08 | 25.19376 | -77.89738 | 8239 ft | 279 kts | 111° |
| 2026-05-07 22:08 | 25.18636 | -77.87752 | 7912 ft | 280 kts | 112° |
| 2026-05-07 22:09 | 25.17893 | -77.85761 | 7591 ft | 281 kts | 112° |
| 2026-05-07 22:09 | 25.17148 | -77.83764 | 7263 ft | 282 kts | 112° |
| 2026-05-07 22:09 | 25.16401 | -77.81764 | 6943 ft | 282 kts | 112° |
| 2026-05-07 22:09 | 25.15653 | -77.79764 | 6615 ft | 281 kts | 113° |
| 2026-05-07 22:10 | 25.14912 | -77.77781 | 6273 ft | 279 kts | 113° |
| 2026-05-07 22:10 | 25.14175 | -77.75808 | 5935 ft | 277 kts | 113° |
| 2026-05-07 22:10 | 25.13441 | -77.73844 | 5555 ft | 277 kts | 114° |
| 2026-05-07 22:10 | 25.12711 | -77.71881 | 5169 ft | 276 kts | 112° |
| 2026-05-07 22:11 | 25.12426 | -77.69811 | 4718 ft | 277 kts | 82° |
| 2026-05-07 22:11 | 25.13158 | -77.67875 | 4202 ft | 276 kts | 49° |
| 2026-05-07 22:11 | 25.14649 | -77.66606 | 3779 ft | 269 kts | 29° |
| 2026-05-07 22:11 | 25.16219 | -77.65519 | 3341 ft | 265 kts | 34° |
| 2026-05-07 22:12 | 25.17524 | -77.64118 | 2867 ft | 263 kts | 61° |
| 2026-05-07 22:12 | 25.17856 | -77.62215 | 2634 ft | 252 kts | 100° |
| 2026-05-07 22:12 | 25.17087 | -77.60552 | 2433 ft | 242 kts | 134° |
| 2026-05-07 22:12 | 25.15902 | -77.59296 | 2292 ft | 230 kts | 137° |
| 2026-05-07 22:13 | 25.14740 | -77.58151 | 2100 ft | 218 kts | 138° |
| 2026-05-07 22:13 | 25.13677 | -77.57049 | 2017 ft | 202 kts | 135° |
| 2026-05-07 22:13 | 25.12731 | -77.56002 | 1994 ft | 183 kts | 134° |
| 2026-05-07 22:13 | 25.11869 | -77.55039 | 1839 ft | 171 kts | 134° |
| 2026-05-07 22:14 | 25.11067 | -77.54142 | 1666 ft | 157 kts | 134° |
| 2026-05-07 22:14 | 25.10341 | -77.53331 | 1506 ft | 139 kts | 135° |
| 2026-05-07 22:14 | 25.09690 | -77.52607 | 1300 ft | 129 kts | 135° |
| 2026-05-07 22:14 | 25.09048 | -77.51892 | 1107 ft | 134 kts | 134° |
| 2026-05-07 22:15 | 25.08400 | -77.51169 | 953 ft | 133 kts | 134° |
| 2026-05-07 22:15 | 25.07725 | -77.50398 | 797 ft | 145 kts | 131° |
| 2026-05-07 22:15 | 25.07022 | -77.49594 | 574 ft | 145 kts | 131° |
| 2026-05-07 22:15 | 25.06308 | -77.48816 | 364 ft | 143 kts | 129° |
| 2026-05-07 22:16 | 25.05617 | -77.48045 | 211 ft | 141 kts | 130° |
| 2026-05-07 22:16 | 25.04914 | -77.47269 | 24 ft | 137 kts | 131° |
| 2026-05-07 22:16 | 25.04333 | -77.46623 | 19 ft | 101 kts | 135° |
| 2026-05-07 22:16 | 25.03922 | -77.46168 | 18 ft | 73 kts | 134° |
| 2026-05-07 22:17 | 25.03755 | -77.45974 | 20 ft | 14 kts | 121° |
| 2026-05-07 22:17 | 25.03804 | -77.45892 | 17 ft | 14 kts | 44° |
| 2026-05-07 22:17 | 25.03880 | -77.45870 | 16 ft | 10 kts | 323° |
| 2026-05-07 22:17 | 25.03917 | -77.45910 | 19 ft | 7 kts | 314° |
| 2026-05-07 22:18 | 25.03956 | -77.45950 | 18 ft | 9 kts | 317° |
| 2026-05-07 22:18 | 25.04065 | -77.46073 | 17 ft | 12 kts | 314° |
| 2026-05-07 22:18 | 25.04126 | -77.46142 | 17 ft | 13 kts | 315° |
| 2026-05-07 22:19 | 25.04197 | -77.46221 | 17 ft | 16 kts | 315° |
| 2026-05-07 22:19 | 25.04279 | -77.46310 | 16 ft | 18 kts | 314° |
| 2026-05-07 22:19 | 25.04367 | -77.46409 | 16 ft | 18 kts | 315° |
| 2026-05-07 22:19 | 25.04456 | -77.46507 | 18 ft | 19 kts | 314° |
| 2026-05-07 22:20 | 25.04551 | -77.46612 | 19 ft | 20 kts | 314° |
| 2026-05-07 22:20 | 25.04646 | -77.46718 | 17 ft | 19 kts | 316° |
| 2026-05-07 22:20 | 25.04741 | -77.46818 | 17 ft | 18 kts | 315° |
| 2026-05-07 22:20 | 25.04825 | -77.46915 | 19 ft | 14 kts | 313° |
| 2026-05-07 22:21 | 25.04893 | -77.46950 | 16 ft | 8 kts | 17° |
| 2026-05-07 22:21 | 25.04936 | -77.46914 | 16 ft | 8 kts | 43° |
| 2026-05-07 22:21 | 25.04962 | -77.46865 | 16 ft | 6 kts | 68° |
| 2026-05-07 22:21 | 25.04974 | -77.46846 | 17 ft | 2 kts | 39° |
| 2026-05-07 22:22 | 25.04989 | -77.46841 | 16 ft | 2 kts | 21° |
| 2026-05-07 22:22 | 25.05002 | -77.46822 | 16 ft | 5 kts | 65° |
| 2026-05-07 22:22 | 25.05016 | -77.46786 | 16 ft | 5 kts | 73° |
| 2026-05-07 22:22 | 25.05015 | -77.46748 | 16 ft | 5 kts | 102° |
| 2026-05-07 22:23 | 25.05005 | -77.46721 | 18 ft | 0 kts | 112° |